createdAt,value
2023-03-27T00:01:15.957Z,80.44
2023-03-27T00:03:42.934Z,80.67
2023-03-27T00:06:12.196Z,80.51
2023-03-27T00:08:38.771Z,80.81
2023-03-27T00:11:07.117Z,81.00
2023-03-27T00:13:34.033Z,81.08
2023-03-27T00:16:01.071Z,81.26
2023-03-27T00:18:29.536Z,81.15
2023-03-27T00:21:00.841Z,81.35
2023-03-27T00:23:31.381Z,81.46
2023-03-27T00:25:58.900Z,81.52
2023-03-27T00:28:27.373Z,81.63
2023-03-27T00:30:55.827Z,81.70
2023-03-27T00:33:23.690Z,81.73
2023-03-27T00:35:51.068Z,81.77
2023-03-27T00:38:18.314Z,81.92
2023-03-27T00:40:46.738Z,81.86
2023-03-27T00:43:22.317Z,82.27
2023-03-27T00:45:52.642Z,82.21
2023-03-27T00:48:20.660Z,82.46
2023-03-27T00:50:49.624Z,82.49
2023-03-27T00:53:21.210Z,82.71
2023-03-27T00:55:51.586Z,82.71
2023-03-27T00:58:26.130Z,82.53
2023-03-27T01:00:55.499Z,83.00
2023-03-27T01:03:27.446Z,82.76
2023-03-27T01:05:55.941Z,83.02
2023-03-27T01:08:24.413Z,82.92
2023-03-27T01:11:09.516Z,83.17
2023-03-27T01:14:00.494Z,82.93
2023-03-27T01:16:52.158Z,83.09
2023-03-27T01:19:49.768Z,83.47
2023-03-27T01:22:34.866Z,83.50
2023-03-27T01:25:40.011Z,83.25
2023-03-27T01:28:27.065Z,83.57
2023-03-27T01:31:05.719Z,83.27
2023-03-27T01:34:11.077Z,83.32
2023-03-27T01:37:18.875Z,83.29
2023-03-27T01:40:24.356Z,83.21
2023-03-27T01:42:59.541Z,82.87
2023-03-27T01:46:01.135Z,83.49
2023-03-27T01:48:45.970Z,83.37
2023-03-27T01:51:25.981Z,83.32
2023-03-27T01:53:58.923Z,83.51
2023-03-27T01:56:32.564Z,83.66
2023-03-27T01:59:21.824Z,83.37
2023-03-27T02:01:53.453Z,83.53
2023-03-27T02:04:27.322Z,83.77
2023-03-27T02:07:04.888Z,83.54
2023-03-27T02:09:37.337Z,83.71
2023-03-27T02:12:11.972Z,83.52
2023-03-27T02:14:42.812Z,83.55
2023-03-27T02:17:13.937Z,83.82
2023-03-27T02:20:09.490Z,84.05
2023-03-27T02:22:38.189Z,84.18
2023-03-27T02:25:29.929Z,84.09
2023-03-27T02:28:11.177Z,84.00
2023-03-27T02:30:42.342Z,84.12
2023-03-27T02:33:17.828Z,84.07
2023-03-27T02:35:55.597Z,83.97
2023-03-27T02:38:33.056Z,84.10
2023-03-27T02:41:41.031Z,84.25
2023-03-27T02:44:12.743Z,83.94
2023-03-27T02:46:42.122Z,83.87
2023-03-27T02:49:24.056Z,83.95
2023-03-27T02:52:01.071Z,84.01
2023-03-27T02:54:32.417Z,84.19
2023-03-27T02:57:05.111Z,84.63
2023-03-27T02:59:42.649Z,84.61
2023-03-27T03:02:14.638Z,84.59
2023-03-27T03:04:46.913Z,84.75
2023-03-27T03:07:14.318Z,84.52
2023-03-27T03:09:41.640Z,84.68
2023-03-27T03:12:08.717Z,84.53
2023-03-27T03:14:39.833Z,84.79
2023-03-27T03:17:06.585Z,84.78
2023-03-27T03:19:33.027Z,85.05
2023-03-27T03:22:01.011Z,85.26
2023-03-27T03:24:27.695Z,85.15
2023-03-27T03:26:54.210Z,85.24
2023-03-27T03:29:20.590Z,85.45
2023-03-27T03:31:47.113Z,85.25
2023-03-27T03:34:16.282Z,85.52
2023-03-27T03:36:44.795Z,85.65
2023-03-27T03:39:12.569Z,85.34
2023-03-27T03:41:39.146Z,85.54
2023-03-27T03:44:05.683Z,85.13
2023-03-27T03:46:32.243Z,85.48
2023-03-27T03:48:59.440Z,85.64
2023-03-27T03:51:26.319Z,85.59
2023-03-27T03:53:52.891Z,85.60
2023-03-27T03:56:19.704Z,85.98
2023-03-27T03:58:46.162Z,85.92
2023-03-27T04:01:12.657Z,85.87
2023-03-27T04:03:39.254Z,86.08
2023-03-27T04:06:07.317Z,86.02
2023-03-27T04:08:34.840Z,85.85
2023-03-27T04:11:01.260Z,85.67
2023-03-27T04:13:27.674Z,85.42
2023-03-27T04:15:55.205Z,85.56
2023-03-27T04:18:24.713Z,85.77
2023-03-27T04:20:51.285Z,85.87
2023-03-27T04:23:21.147Z,86.02
2023-03-27T04:25:47.631Z,86.03
2023-03-27T04:28:17.524Z,85.75
2023-03-27T04:30:45.229Z,86.14
2023-03-27T04:33:22.977Z,85.94
2023-03-27T04:36:06.429Z,85.95
2023-03-27T04:38:36.623Z,85.66
2023-03-27T04:41:03.722Z,85.83
2023-03-27T04:43:30.686Z,85.75
2023-03-27T04:45:57.068Z,85.94
2023-03-27T04:48:23.427Z,85.81
2023-03-27T04:50:49.829Z,85.84
2023-03-27T04:53:17.168Z,85.96
2023-03-27T04:55:45.797Z,85.88
2023-03-27T04:58:12.970Z,85.89
2023-03-27T05:00:40.183Z,86.03
2023-03-27T05:03:07.879Z,85.85
2023-03-27T05:05:34.772Z,85.87
2023-03-27T05:08:01.450Z,85.95
2023-03-27T05:10:27.876Z,85.91
2023-03-27T05:12:57.109Z,85.82
2023-03-27T05:15:24.355Z,85.78
2023-03-27T05:17:54.699Z,85.87
2023-03-27T05:20:22.236Z,85.95
2023-03-27T05:22:49.260Z,85.79
2023-03-27T05:25:15.958Z,85.92
2023-03-27T05:27:50.079Z,85.71
2023-03-27T05:30:19.053Z,85.75
2023-03-27T05:32:52.220Z,85.64
2023-03-27T05:35:21.652Z,85.59
2023-03-27T05:37:49.971Z,85.70
2023-03-27T05:40:20.615Z,85.58
2023-03-27T05:42:47.486Z,85.77
2023-03-27T05:45:14.711Z,85.59
2023-03-27T05:47:51.960Z,85.55
2023-03-27T05:50:21.494Z,85.58
2023-03-27T05:52:47.935Z,85.36
2023-03-27T05:55:17.234Z,85.42
2023-03-27T05:57:43.658Z,85.32
2023-03-27T06:00:13.914Z,85.25
2023-03-27T06:02:43.165Z,85.18
2023-03-27T06:05:13.365Z,84.93
2023-03-27T06:07:42.468Z,85.18
2023-03-27T06:10:13.816Z,84.81
2023-03-27T06:12:41.668Z,85.27
2023-03-27T06:15:09.750Z,85.04
2023-03-27T06:17:39.330Z,85.16
2023-03-27T06:20:12.327Z,85.02
2023-03-27T06:22:42.429Z,84.88
2023-03-27T06:25:09.098Z,84.74
2023-03-27T06:27:35.565Z,84.86
2023-03-27T06:30:02.009Z,84.86
2023-03-27T06:32:28.485Z,84.67
2023-03-27T06:34:54.887Z,84.65
2023-03-27T06:37:21.288Z,84.44
2023-03-27T06:39:50.724Z,84.32
2023-03-27T06:42:17.426Z,84.25
2023-03-27T06:44:44.358Z,84.08
2023-03-27T06:47:10.794Z,83.88
2023-03-27T06:49:37.250Z,84.07
2023-03-27T06:52:04.025Z,84.06
2023-03-27T06:54:30.942Z,83.89
2023-03-27T06:56:57.590Z,83.75
2023-03-27T06:59:23.961Z,83.61
2023-03-27T07:01:52.336Z,83.61
2023-03-27T07:04:18.835Z,83.31
2023-03-27T07:06:48.691Z,83.23
2023-03-27T07:09:15.225Z,83.05
2023-03-27T07:11:41.609Z,82.94
2023-03-27T07:14:08.252Z,83.24
2023-03-27T07:16:34.719Z,82.82
2023-03-27T07:19:02.363Z,82.59
2023-03-27T07:21:29.565Z,82.46
2023-03-27T07:23:56.141Z,82.35
2023-03-27T07:26:22.594Z,82.14
2023-03-27T07:28:50.498Z,82.27
2023-03-27T07:31:31.534Z,82.22
2023-03-27T07:34:05.308Z,81.71
2023-03-27T07:36:31.705Z,81.42
2023-03-27T07:39:00.341Z,81.16
2023-03-27T07:41:26.860Z,81.05
2023-03-27T07:43:53.264Z,81.11
2023-03-27T07:46:19.724Z,80.72
2023-03-27T07:48:46.204Z,80.57
2023-03-27T07:51:14.350Z,80.47
2023-03-27T07:53:41.478Z,80.54
2023-03-27T07:56:08.773Z,80.78
2023-03-27T07:58:35.467Z,80.57
2023-03-27T08:01:03.284Z,80.61
2023-03-27T08:03:30.842Z,80.44
2023-03-27T08:05:59.381Z,80.05
2023-03-27T08:08:26.564Z,80.05
2023-03-27T08:10:57.731Z,79.88
2023-03-27T08:13:24.546Z,79.65
2023-03-27T08:15:51.430Z,79.69
2023-03-27T08:18:17.939Z,79.58
2023-03-27T08:20:45.580Z,79.42
2023-03-27T08:23:12.194Z,78.87
2023-03-27T08:25:38.703Z,78.74
2023-03-27T08:28:05.191Z,78.65
2023-03-27T08:30:31.706Z,78.54
2023-03-27T08:33:00.014Z,78.39
2023-03-27T08:35:26.629Z,78.14
2023-03-27T08:37:53.965Z,77.76
2023-03-27T08:40:26.130Z,77.60
2023-03-27T08:42:57.128Z,77.53
2023-03-27T08:45:32.349Z,77.34
2023-03-27T08:48:05.642Z,76.82
2023-03-27T08:50:44.061Z,76.62
2023-03-27T08:53:38.264Z,75.75
2023-03-27T08:56:05.459Z,75.95
2023-03-27T08:58:33.602Z,75.81
2023-03-27T09:01:12.003Z,75.67
2023-03-27T09:03:55.847Z,75.14
2023-03-27T09:06:28.002Z,74.80
2023-03-27T09:09:46.433Z,74.33
2023-03-27T09:12:26.284Z,73.84
2023-03-27T09:15:00.467Z,73.68
2023-03-27T09:17:39.395Z,73.45
2023-03-27T09:20:40.696Z,72.94
2023-03-27T09:23:21.687Z,72.87
2023-03-27T09:25:56.000Z,72.40
2023-03-27T09:28:29.989Z,71.89
2023-03-27T09:30:57.469Z,71.57
2023-03-27T09:33:27.052Z,71.57
2023-03-27T09:35:54.235Z,71.49
2023-03-27T09:38:38.752Z,70.97
2023-03-27T09:41:10.662Z,70.83
2023-03-27T09:43:58.212Z,70.49
2023-03-27T09:46:28.415Z,71.08
2023-03-27T09:49:20.934Z,69.94
2023-03-27T09:51:53.210Z,69.61
2023-03-27T09:54:22.367Z,69.01
2023-03-27T09:56:53.834Z,68.98
2023-03-27T09:59:29.563Z,68.26
2023-03-27T10:02:08.046Z,68.42
2023-03-27T10:04:35.662Z,68.40
2023-03-27T10:07:09.401Z,67.65
2023-03-27T10:09:38.405Z,67.03
2023-03-27T10:12:08.050Z,67.00
2023-03-27T10:14:40.092Z,66.71
2023-03-27T10:17:07.369Z,66.23
2023-03-27T10:19:38.663Z,65.63
2023-03-27T10:22:18.699Z,66.46
2023-03-27T10:24:47.703Z,66.47
2023-03-27T10:27:26.434Z,66.93
2023-03-27T10:29:53.256Z,66.14
2023-03-27T10:35:27.087Z,64.41
2023-03-27T10:37:56.318Z,64.74
2023-03-27T10:40:31.041Z,65.04
2023-03-27T10:43:02.978Z,64.42
2023-03-27T10:45:31.593Z,64.01
2023-03-27T10:48:01.897Z,63.44
2023-03-27T10:50:33.710Z,63.30
2023-03-27T10:53:14.415Z,62.69
2023-03-27T10:55:51.683Z,62.33
2023-03-27T10:58:27.886Z,61.92
2023-03-27T11:01:19.513Z,60.64
2023-03-27T11:03:50.984Z,61.32
2023-03-27T11:06:20.846Z,60.63
2023-03-27T11:09:06.496Z,61.46
2023-03-27T11:11:38.815Z,62.00
2023-03-27T11:14:13.857Z,62.40
2023-03-27T11:16:49.599Z,61.61
2023-03-27T11:19:22.438Z,60.42
2023-03-27T11:21:56.037Z,60.00
2023-03-27T11:24:38.385Z,59.42
2023-03-27T11:27:15.290Z,59.91
2023-03-27T11:29:58.802Z,60.13
2023-03-27T11:33:01.794Z,60.11
2023-03-27T11:35:36.311Z,59.69
2023-03-27T11:38:08.367Z,59.30
2023-03-27T11:40:39.792Z,59.83
2023-03-27T11:43:11.578Z,59.36
2023-03-27T11:45:53.087Z,58.34
2023-03-27T11:48:50.882Z,57.23
2023-03-27T11:51:46.620Z,56.35
2023-03-27T11:54:27.151Z,56.47
2023-03-27T11:57:00.153Z,56.26
2023-03-27T11:59:48.005Z,55.41
2023-03-27T12:03:02.164Z,54.86
2023-03-27T12:05:55.273Z,55.54
2023-03-27T12:08:51.017Z,55.14
2023-03-27T12:11:20.424Z,54.98
2023-03-27T12:14:17.631Z,54.24
2023-03-27T12:16:45.784Z,53.49
2023-03-27T12:19:38.528Z,54.50
2023-03-27T12:22:30.165Z,55.63
2023-03-27T12:25:06.192Z,55.27
2023-03-27T12:27:42.144Z,54.52
2023-03-27T12:30:17.633Z,54.11
2023-03-27T12:32:55.370Z,54.06
2023-03-27T12:35:26.883Z,52.83
2023-03-27T12:38:00.727Z,52.58
2023-03-27T12:40:33.148Z,52.30
2023-03-27T12:43:07.447Z,51.36
2023-03-27T12:45:38.773Z,51.59
2023-03-27T12:48:11.057Z,51.67
2023-03-27T12:50:45.211Z,51.63
2023-03-27T12:53:26.905Z,52.24
2023-03-27T12:56:16.158Z,52.09
2023-03-27T12:58:44.731Z,52.92
2023-03-27T13:01:26.445Z,52.29
2023-03-27T13:04:31.449Z,53.10
2023-03-27T13:07:11.749Z,53.20
2023-03-27T13:10:08.259Z,53.32
2023-03-27T13:12:59.586Z,53.24
2023-03-27T13:15:49.112Z,54.09
2023-03-27T13:18:33.409Z,53.54
2023-03-27T13:21:27.813Z,53.92
2023-03-27T13:24:12.197Z,53.83
2023-03-27T13:26:58.387Z,54.22
2023-03-27T13:29:30.367Z,54.70
2023-03-27T13:32:03.355Z,54.85
2023-03-27T13:34:40.806Z,55.40
2023-03-27T13:37:07.454Z,55.98
2023-03-27T13:39:59.610Z,56.91
2023-03-27T13:42:37.436Z,58.07
2023-03-27T13:45:15.220Z,58.81
2023-03-27T13:48:13.049Z,59.23
2023-03-27T13:51:11.882Z,59.15
2023-03-27T13:53:44.418Z,59.57
2023-03-27T13:56:29.763Z,59.64
2023-03-27T13:59:18.186Z,59.87
2023-03-27T14:01:47.781Z,59.73
2023-03-27T14:04:23.490Z,60.31
2023-03-27T14:07:05.092Z,60.97
2023-03-27T14:10:03.303Z,61.27
2023-03-27T14:12:59.033Z,61.62
2023-03-27T14:15:50.509Z,61.09
2023-03-27T14:19:01.020Z,59.65
2023-03-27T14:21:38.510Z,59.18
2023-03-27T14:24:24.139Z,59.33
2023-03-27T14:26:53.793Z,59.30
2023-03-27T14:29:22.651Z,59.22
2023-03-27T14:31:49.506Z,59.67
2023-03-27T14:34:22.453Z,60.16
2023-03-27T14:36:53.576Z,60.54
2023-03-27T14:39:22.551Z,61.08
2023-03-27T14:42:00.999Z,60.89
2023-03-27T14:44:33.592Z,61.43
2023-03-27T14:47:09.925Z,61.74
2023-03-27T14:49:45.311Z,62.01
2023-03-27T14:52:22.037Z,61.76
2023-03-27T14:54:55.186Z,61.90
2023-03-27T14:57:22.675Z,61.59
2023-03-27T14:59:49.331Z,61.77
2023-03-27T15:04:56.533Z,61.62
2023-03-27T15:07:30.843Z,61.59
2023-03-27T15:10:06.411Z,62.14
2023-03-27T15:12:36.904Z,62.26
2023-03-27T15:15:06.924Z,62.14
2023-03-27T15:17:34.775Z,61.79
2023-03-27T15:20:14.345Z,61.71
2023-03-27T15:22:46.118Z,61.61
2023-03-27T15:25:17.888Z,62.13
2023-03-27T15:27:53.084Z,62.71
2023-03-27T15:30:37.558Z,62.56
2023-03-27T15:33:07.345Z,62.75
2023-03-27T15:35:47.194Z,62.43
2023-03-27T15:38:18.609Z,62.35
2023-03-27T15:40:46.575Z,62.40
2023-03-27T15:43:13.344Z,62.24
2023-03-27T15:45:58.804Z,62.58
2023-03-27T15:48:38.681Z,62.84
2023-03-27T15:51:10.510Z,63.11
2023-03-27T15:53:47.304Z,63.68
2023-03-27T15:56:13.764Z,63.53
2023-03-27T15:58:47.494Z,63.63
2023-03-27T16:01:21.519Z,63.43
2023-03-27T16:03:50.499Z,63.40
2023-03-27T16:06:36.446Z,63.77
2023-03-27T16:09:21.400Z,64.21
2023-03-27T16:11:49.685Z,64.29
2023-03-27T16:14:26.754Z,64.44
2023-03-27T16:17:10.879Z,64.54
2023-03-27T16:19:57.169Z,64.50
2023-03-27T16:22:26.379Z,64.89
2023-03-27T16:24:54.104Z,65.20
2023-03-27T16:27:23.696Z,65.18
2023-03-27T16:29:53.894Z,65.24
2023-03-27T16:32:22.523Z,65.03
2023-03-27T16:34:51.678Z,65.48
2023-03-27T16:37:20.928Z,65.50
2023-03-27T16:39:47.429Z,65.46
2023-03-27T16:42:16.940Z,65.76
2023-03-27T16:44:44.586Z,65.97
2023-03-27T16:47:12.655Z,65.79
2023-03-27T16:49:40.115Z,65.96
2023-03-27T16:52:06.923Z,66.17
2023-03-27T16:54:33.408Z,66.17
2023-03-27T16:57:00.800Z,66.39
2023-03-27T16:59:28.357Z,66.20
2023-03-27T17:01:56.059Z,66.15
2023-03-27T17:04:22.712Z,66.52
2023-03-27T17:06:49.322Z,66.45
2023-03-27T17:09:17.564Z,66.87
2023-03-27T17:11:44.438Z,66.78
2023-03-27T17:14:11.833Z,67.00
2023-03-27T17:16:39.756Z,67.16
2023-03-27T17:19:06.562Z,67.55
2023-03-27T17:21:33.158Z,68.12
2023-03-27T17:24:00.934Z,68.22
2023-03-27T17:26:30.334Z,68.20
2023-03-27T17:28:57.649Z,68.54
2023-03-27T17:31:24.998Z,68.62
2023-03-27T17:33:52.057Z,68.67
2023-03-27T17:36:29.784Z,68.97
2023-03-27T17:39:07.907Z,69.00
2023-03-27T17:41:34.375Z,69.19
2023-03-27T17:44:00.989Z,69.43
2023-03-27T17:46:27.518Z,69.57
2023-03-27T17:48:54.179Z,69.60
2023-03-27T17:51:21.567Z,69.55
2023-03-27T17:53:48.152Z,69.85
2023-03-27T17:56:14.638Z,70.04
2023-03-27T17:58:41.869Z,70.00
2023-03-27T18:01:19.886Z,69.84
2023-03-27T18:03:46.983Z,69.71
2023-03-27T18:06:17.304Z,70.04
2023-03-27T18:08:45.002Z,70.14
2023-03-27T18:11:13.577Z,70.01
2023-03-27T18:13:41.474Z,70.29
2023-03-27T18:16:10.565Z,70.28
2023-03-27T18:18:39.171Z,70.37
2023-03-27T18:21:09.991Z,70.21
2023-03-27T18:23:38.344Z,70.48
2023-03-27T18:26:12.803Z,70.91
2023-03-27T18:28:39.548Z,70.83
2023-03-27T18:31:09.135Z,70.67
2023-03-27T18:33:36.143Z,70.80
2023-03-27T18:36:04.325Z,70.98
2023-03-27T18:38:31.191Z,70.97
2023-03-27T18:40:59.810Z,71.29
2023-03-27T18:43:26.662Z,71.27
2023-03-27T18:46:02.150Z,71.23
2023-03-27T18:48:30.957Z,71.17
2023-03-27T18:50:59.881Z,71.26
2023-03-27T18:53:27.139Z,71.62
2023-03-27T18:55:54.510Z,71.44
2023-03-27T18:58:24.098Z,71.50
2023-03-27T19:00:52.893Z,71.65
2023-03-27T19:03:23.846Z,71.57
2023-03-27T19:05:51.748Z,71.74
2023-03-27T19:08:19.881Z,71.70
2023-03-27T19:10:46.576Z,71.70
2023-03-27T19:13:13.353Z,71.89
2023-03-27T19:15:41.822Z,71.83
2023-03-27T19:18:08.748Z,71.83
2023-03-27T19:20:35.634Z,71.89
2023-03-27T19:23:02.128Z,71.87
2023-03-27T19:25:28.668Z,71.99
2023-03-27T19:27:55.993Z,72.30
2023-03-27T19:30:22.506Z,72.52
2023-03-27T19:32:50.423Z,72.57
2023-03-27T19:35:17.212Z,72.86
2023-03-27T19:37:43.792Z,72.90
2023-03-27T19:40:10.642Z,73.01
2023-03-27T19:42:37.105Z,73.01
2023-03-27T19:45:03.962Z,73.14
2023-03-27T19:47:30.406Z,73.18
2023-03-27T19:49:57.373Z,73.29
2023-03-27T19:52:25.795Z,73.27
2023-03-27T19:54:53.750Z,73.28
2023-03-27T19:57:20.933Z,73.33
2023-03-27T19:59:47.429Z,73.56
2023-03-27T20:02:14.425Z,73.76
2023-03-27T20:04:40.958Z,73.81
2023-03-27T20:07:07.639Z,73.92
2023-03-27T20:09:34.583Z,73.92
2023-03-27T20:12:01.418Z,73.80
2023-03-27T20:14:27.915Z,74.11
2023-03-27T20:16:54.649Z,74.73
2023-03-27T20:19:22.160Z,74.43
2023-03-27T20:21:48.978Z,74.46
2023-03-27T20:24:17.292Z,74.71
2023-03-27T20:26:47.963Z,74.80
2023-03-27T20:29:20.313Z,74.73
2023-03-27T20:31:47.923Z,74.70
2023-03-27T20:34:19.150Z,74.82
2023-03-27T20:36:45.972Z,74.63
2023-03-27T20:39:14.153Z,74.57
2023-03-27T20:41:40.824Z,74.71
2023-03-27T20:44:15.697Z,74.83
2023-03-27T20:46:47.409Z,74.57
2023-03-27T20:49:37.497Z,75.00
2023-03-27T20:52:12.844Z,74.89
2023-03-27T20:54:39.369Z,74.76
2023-03-27T20:57:05.891Z,74.92
2023-03-27T20:59:32.315Z,75.11
2023-03-27T21:01:59.600Z,74.85
2023-03-27T21:04:28.160Z,74.99
2023-03-27T21:06:57.723Z,75.18
2023-03-27T21:09:26.960Z,74.92
2023-03-27T21:11:55.074Z,75.04
2023-03-27T21:14:21.862Z,74.94
2023-03-27T21:16:48.617Z,74.99
2023-03-27T21:19:15.862Z,74.81
2023-03-27T21:21:42.643Z,74.95
2023-03-27T21:24:09.190Z,74.78
2023-03-27T21:26:36.483Z,74.92
2023-03-27T21:29:03.559Z,74.92
2023-03-27T21:31:30.791Z,74.92
2023-03-27T21:33:57.340Z,75.07
2023-03-27T21:36:24.568Z,75.05
2023-03-27T21:38:51.784Z,75.09
2023-03-27T21:41:19.798Z,75.14
2023-03-27T21:43:46.234Z,75.17
2023-03-27T21:46:12.885Z,75.24
2023-03-27T21:48:40.720Z,75.32
2023-03-27T21:51:08.380Z,75.25
2023-03-27T21:53:35.828Z,75.63
2023-03-27T21:56:02.956Z,75.55
2023-03-27T21:58:29.970Z,75.51
2023-03-27T22:00:57.606Z,75.95
2023-03-27T22:03:25.577Z,75.55
2023-03-27T22:06:08.076Z,75.70
2023-03-27T22:08:38.250Z,75.66
2023-03-27T22:11:05.344Z,75.49
2023-03-27T22:13:31.888Z,75.66
2023-03-27T22:15:58.659Z,75.75
2023-03-27T22:18:25.601Z,75.82
2023-03-27T22:20:52.035Z,75.97
2023-03-27T22:23:19.269Z,76.00
2023-03-27T22:25:53.253Z,76.02
2023-03-27T22:28:19.722Z,76.13
2023-03-27T22:30:46.131Z,76.16
2023-03-27T22:33:12.472Z,76.14
2023-03-27T22:35:38.960Z,76.12
2023-03-27T22:38:05.532Z,76.10
2023-03-27T22:40:31.997Z,76.28
2023-03-27T22:42:58.384Z,76.33
2023-03-27T22:45:24.936Z,76.24
2023-03-27T22:47:51.493Z,76.52
2023-03-27T22:50:17.982Z,76.53
2023-03-27T22:52:44.379Z,76.63
2023-03-27T22:55:11.068Z,76.47
2023-03-27T22:57:37.684Z,76.52
2023-03-27T23:00:06.207Z,76.46
2023-03-27T23:02:32.696Z,76.62
2023-03-27T23:04:59.188Z,76.81
2023-03-27T23:07:25.640Z,76.75
2023-03-27T23:09:52.076Z,76.58
2023-03-27T23:12:18.432Z,76.79
2023-03-27T23:14:44.824Z,77.04
2023-03-27T23:17:11.324Z,77.05
2023-03-27T23:19:37.752Z,76.88
2023-03-27T23:22:04.174Z,76.94
2023-03-27T23:24:31.031Z,76.81
2023-03-27T23:26:57.425Z,76.94
2023-03-27T23:29:23.934Z,76.83
2023-03-27T23:31:50.717Z,76.85
2023-03-27T23:34:17.119Z,76.94
2023-03-27T23:36:43.952Z,76.97
2023-03-27T23:39:10.359Z,76.71
2023-03-27T23:41:36.753Z,77.16
2023-03-27T23:44:03.410Z,77.07
2023-03-27T23:46:29.921Z,76.89
2023-03-27T23:48:56.265Z,76.98
2023-03-27T23:51:22.754Z,76.99
2023-03-27T23:53:50.457Z,76.97
2023-03-27T23:56:16.890Z,77.07
2023-03-27T23:58:43.394Z,76.79
